Time;durP1;ratioP1;P1;durP2;ratioP2;P2;SDS_P1;SDS_P2;PMS_P1;PMS_P2;Temp;Humidity;BMP_temperature;BMP_pressure;BME280_temperature;BME280_humidity;BME280_pressure;Samples;Min_cycle;Max_cycle;Signal;HPM_P1;HPM_P2
2021/10/10 00:04:36;;;;;;;11.48;6.25;;;11.40;84.90;;;;;;10127101;28;20126;-53
2021/10/10 00:09:27;;;;;;;11.10;6.22;;;11.30;85.30;;;;;;10117208;28;20426;-58
2021/10/10 00:14:17;;;;;;;12.18;7.75;;;11.20;85.70;;;;;;10100559;28;20527;-56
2021/10/10 00:19:08;;;;;;;15.30;6.45;;;11.20;85.50;;;;;;10117933;28;20041;-55
2021/10/10 00:23:59;;;;;;;10.27;6.10;;;11.20;85.80;;;;;;10098325;28;20499;-57
2021/10/10 00:28:49;;;;;;;13.88;6.63;;;11.10;85.40;;;;;;10115840;28;20309;-60
2021/10/10 00:33:40;;;;;;;10.55;6.03;;;11.10;85.80;;;;;;10110437;28;20210;-62
2021/10/10 00:38:31;;;;;;;12.90;6.72;;;11.10;85.90;;;;;;10122384;28;20493;-65
2021/10/10 00:43:22;;;;;;;17.00;7.53;;;11.10;86.10;;;;;;10116401;28;20411;-61
2021/10/10 00:48:12;;;;;;;12.00;6.78;;;11.10;85.60;;;;;;10115120;28;20555;-65
2021/10/10 00:53:04;;;;;;;12.60;6.63;;;10.90;85.80;;;;;;10115795;28;20037;-66
2021/10/10 00:57:56;;;;;;;13.18;6.25;;;10.90;85.80;;;;;;10109082;28;20017;-63
2021/10/10 01:02:47;;;;;;;11.18;6.15;;;10.90;86.00;;;;;;10123056;28;20040;-61
2021/10/10 01:07:37;;;;;;;12.52;6.40;;;10.80;86.20;;;;;;10118140;28;20034;-58
2021/10/10 01:12:29;;;;;;;11.35;5.93;;;10.80;86.40;;;;;;10118803;28;20056;-63
2021/10/10 01:17:19;;;;;;;8.80;5.07;;;10.80;86.20;;;;;;10114500;28;20024;-59
2021/10/10 01:22:11;;;;;;;9.45;5.88;;;10.60;86.70;;;;;;10111446;28;20047;-57
2021/10/10 01:27:01;;;;;;;10.45;5.45;;;10.60;87.30;;;;;;10109933;28;20032;-62
2021/10/10 01:31:52;;;;;;;11.13;5.72;;;10.60;87.20;;;;;;10115310;28;20404;-56
2021/10/10 01:36:43;;;;;;;11.48;5.97;;;10.50;87.50;;;;;;10114852;28;20028;-57
2021/10/10 01:41:34;;;;;;;10.38;5.93;;;10.40;87.80;;;;;;10102193;28;20029;-57
2021/10/10 01:46:24;;;;;;;10.43;5.78;;;10.30;87.70;;;;;;10110968;28;20101;-59
2021/10/10 01:51:16;;;;;;;9.48;6.32;;;10.30;87.80;;;;;;10118624;28;20124;-56
2021/10/10 01:56:07;;;;;;;11.73;6.60;;;10.30;87.80;;;;;;10109892;28;20395;-59
2021/10/10 02:00:58;;;;;;;12.00;6.70;;;10.30;87.70;;;;;;10123775;28;20121;-61
2021/10/10 02:05:50;;;;;;;10.20;5.32;;;10.20;87.60;;;;;;10113358;28;20017;-63
2021/10/10 02:10:40;;;;;;;12.10;5.80;;;10.20;87.80;;;;;;10114031;28;20094;-65
2021/10/10 02:15:31;;;;;;;10.25;5.18;;;10.20;87.90;;;;;;10126703;28;20525;-59
2021/10/10 02:20:22;;;;;;;9.75;6.05;;;10.00;88.40;;;;;;10115872;28;20025;-62
2021/10/10 02:25:12;;;;;;;11.52;5.35;;;10.00;88.60;;;;;;10123352;28;20028;-58
2021/10/10 02:30:03;;;;;;;9.55;4.93;;;10.00;88.20;;;;;;10105651;28;20072;-58
2021/10/10 02:34:55;;;;;;;9.65;5.93;;;9.90;88.30;;;;;;10113309;28;20489;-59
2021/10/10 02:39:45;;;;;;;10.88;5.45;;;9.80;88.90;;;;;;10121367;28;20098;-60
2021/10/10 02:44:36;;;;;;;9.35;5.15;;;9.70;88.80;;;;;;10123970;28;20359;-65
2021/10/10 02:49:27;;;;;;;9.18;5.18;;;9.70;88.60;;;;;;10112242;28;20115;-60
2021/10/10 02:54:17;;;;;;;10.63;5.18;;;9.60;88.20;;;;;;10113673;28;20033;-58
2021/10/10 02:59:08;;;;;;;9.70;5.22;;;9.60;88.60;;;;;;10114221;28;20041;-60
2021/10/10 03:04:00;;;;;;;10.45;5.57;;;9.60;88.80;;;;;;10125826;28;20025;-60
2021/10/10 03:08:50;;;;;;;10.23;5.40;;;9.50;89.10;;;;;;10114854;28;20112;-58
2021/10/10 03:13:41;;;;;;;12.73;7.00;;;9.50;89.20;;;;;;10103725;28;20124;-60
2021/10/10 03:18:32;;;;;;;6.93;5.53;;;9.50;88.90;;;;;;10116654;28;20040;-65
2021/10/10 03:23:22;;;;;;;12.85;5.43;;;9.40;89.20;;;;;;10118309;28;20031;-60
2021/10/10 03:28:13;;;;;;;9.48;5.05;;;9.40;89.10;;;;;;10114184;28;20025;-62
2021/10/10 03:33:04;;;;;;;11.48;5.30;;;9.40;89.00;;;;;;10119065;28;20072;-59
2021/10/10 03:37:55;;;;;;;8.40;4.85;;;9.30;89.60;;;;;;10125244;28;20016;-58
2021/10/10 03:42:45;;;;;;;11.50;6.00;;;9.20;89.50;;;;;;10121305;28;20055;-59
2021/10/10 03:47:37;;;;;;;10.93;5.40;;;9.20;89.80;;;;;;10119578;28;20287;-55
2021/10/10 03:52:27;;;;;;;10.77;4.85;;;9.10;89.90;;;;;;10120246;28;20048;-63
2021/10/10 03:57:25;;;;;;;9.88;5.00;;;9.10;89.90;;;;;;10114815;28;20041;-63
2021/10/10 04:02:15;;;;;;;8.77;4.35;;;9.00;90.00;;;;;;10122443;28;20024;-65
2021/10/10 04:07:06;;;;;;;7.97;5.30;;;9.00;89.80;;;;;;10124084;28;20042;-66
2021/10/10 04:11:57;;;;;;;9.77;5.18;;;9.00;90.10;;;;;;10122919;28;20573;-60
2021/10/10 04:16:48;;;;;;;9.13;4.55;;;8.90;90.00;;;;;;10121173;28;20063;-62
2021/10/10 04:21:38;;;;;;;6.95;4.32;;;8.90;90.00;;;;;;10123039;28;20017;-62
2021/10/10 04:26:29;;;;;;;7.57;5.93;;;8.80;90.10;;;;;;10113514;28;20128;-64
2021/10/10 04:31:19;;;;;;;10.15;5.00;;;8.70;90.20;;;;;;10119845;28;20626;-55
2021/10/10 04:36:10;;;;;;;14.10;5.50;;;8.70;90.10;;;;;;10100671;28;20521;-55
2021/10/10 04:41:01;;;;;;;9.43;6.03;;;8.80;90.20;;;;;;10119799;28;20137;-59
2021/10/10 04:45:52;;;;;;;6.53;4.07;;;8.60;90.30;;;;;;10109738;28;20047;-57
2021/10/10 04:50:42;;;;;;;6.97;4.85;;;8.70;90.10;;;;;;10123358;28;20063;-56
2021/10/10 04:55:33;;;;;;;7.95;4.72;;;8.60;90.20;;;;;;10102462;28;20253;-58
2021/10/10 05:00:24;;;;;;;9.48;5.10;;;8.60;90.20;;;;;;10118786;28;20036;-59
2021/10/10 05:05:14;;;;;;;6.25;4.00;;;8.50;90.40;;;;;;10099889;28;20028;-56
2021/10/10 05:10:05;;;;;;;8.88;4.88;;;8.60;90.30;;;;;;10116060;28;20094;-58
2021/10/10 05:14:56;;;;;;;7.68;4.43;;;8.50;90.30;;;;;;10120820;28;20096;-56
2021/10/10 05:19:47;;;;;;;6.82;4.13;;;8.40;90.40;;;;;;10119790;28;20115;-58
2021/10/10 05:24:37;;;;;;;8.80;5.32;;;8.40;90.30;;;;;;10119462;28;20499;-57
2021/10/10 05:29:28;;;;;;;8.80;5.07;;;8.30;90.40;;;;;;10127663;28;20505;-60
2021/10/10 05:34:19;;;;;;;8.75;4.50;;;8.30;90.30;;;;;;10128742;28;20064;-62
2021/10/10 05:39:09;;;;;;;7.80;5.18;;;8.30;90.40;;;;;;10129634;28;20056;-57
2021/10/10 05:44:01;;;;;;;7.80;4.32;;;8.30;90.20;;;;;;10106583;28;20317;-60
2021/10/10 05:48:51;;;;;;;11.40;6.22;;;8.30;90.20;;;;;;10123530;28;20063;-58
2021/10/10 05:53:42;;;;;;;8.00;4.47;;;8.30;90.30;;;;;;10128427;28;20485;-55
2021/10/10 05:58:39;;;;;;;10.95;4.35;;;8.20;90.50;;;;;;10119998;28;20039;-56
2021/10/10 06:03:29;;;;;;;8.10;4.57;;;8.20;90.60;;;;;;10122075;28;20028;-58
2021/10/10 06:08:20;;;;;;;9.88;4.40;;;8.20;90.50;;;;;;10138390;28;20032;-57
2021/10/10 06:13:11;;;;;;;10.52;5.00;;;8.20;90.40;;;;;;10108540;28;20060;-59
2021/10/10 06:18:02;;;;;;;7.72;4.95;;;8.30;90.40;;;;;;10128274;28;20437;-62
2021/10/10 06:22:53;;;;;;;10.23;4.63;;;8.30;90.30;;;;;;10121977;28;20071;-66
2021/10/10 06:27:44;;;;;;;7.65;4.55;;;8.30;90.20;;;;;;10101767;28;20013;-66
2021/10/10 06:32:35;;;;;;;9.15;4.93;;;8.40;90.30;;;;;;10126177;28;20051;-67
2021/10/10 06:37:25;;;;;;;7.38;5.10;;;8.30;90.30;;;;;;10124955;28;20021;-64
2021/10/10 06:42:16;;;;;;;9.90;4.97;;;8.40;90.20;;;;;;10114826;28;20123;-65
2021/10/10 06:47:07;;;;;;;7.93;4.65;;;8.30;90.30;;;;;;10098925;28;20106;-63
2021/10/10 06:51:58;;;;;;;9.13;5.18;;;8.30;90.30;;;;;;10123882;28;20060;-58
2021/10/10 06:56:48;;;;;;;8.43;5.38;;;8.40;90.10;;;;;;10118979;28;20024;-60
2021/10/10 07:01:40;;;;;;;8.00;4.97;;;8.50;90.00;;;;;;10112496;28;20044;-60
2021/10/10 07:06:31;;;;;;;8.13;4.88;;;8.60;90.00;;;;;;10122476;28;20028;-62
2021/10/10 07:11:22;;;;;;;8.40;4.78;;;8.60;89.90;;;;;;10106074;28;20112;-62
2021/10/10 07:16:13;;;;;;;7.75;5.10;;;8.70;89.70;;;;;;10114877;28;20094;-63
2021/10/10 07:25:59;;;;;;;13.23;5.72;;;8.80;89.60;;;;;;10119308;28;20021;-61
2021/10/10 07:30:51;;;;;;;10.20;5.00;;;8.80;89.40;;;;;;10083249;28;20498;-66
2021/10/10 07:35:41;;;;;;;9.38;5.65;;;8.90;89.50;;;;;;10117202;28;20028;-64
2021/10/10 07:40:32;;;;;;;9.52;4.57;;;8.90;89.40;;;;;;10119838;28;20320;-65
2021/10/10 07:45:24;;;;;;;7.80;4.93;;;9.10;89.10;;;;;;10108596;28;20024;-64
2021/10/10 07:50:18;;;;;;;9.98;4.65;;;9.20;88.90;;;;;;10115778;28;20323;-64
2021/10/10 07:55:09;;;;;;;12.35;6.25;;;9.20;88.90;;;;;;10116508;28;20054;-64
2021/10/10 08:00:00;;;;;;;10.65;5.45;;;9.40;88.60;;;;;;10110752;28;20048;-63
2021/10/10 08:04:51;;;;;;;11.20;5.07;;;9.50;88.60;;;;;;10115712;28;20513;-61
2021/10/10 08:09:41;;;;;;;12.13;5.68;;;9.60;88.60;;;;;;10117363;28;20548;-62
2021/10/10 08:14:32;;;;;;;9.00;5.80;;;9.60;88.60;;;;;;10119273;28;20091;-71
2021/10/10 08:19:23;;;;;;;10.50;5.32;;;9.70;88.60;;;;;;10111419;28;20091;-67
2021/10/10 08:24:16;;;;;;;11.02;5.65;;;9.70;88.60;;;;;;10107423;28;20043;-66
2021/10/10 08:29:07;;;;;;;9.05;6.13;;;9.80;88.60;;;;;;10116845;28;20017;-63
2021/10/10 08:33:57;;;;;;;8.57;5.63;;;9.90;88.40;;;;;;10112831;28;20024;-66
2021/10/10 08:38:48;;;;;;;10.90;5.75;;;10.00;88.40;;;;;;10109701;28;20021;-62
2021/10/10 08:43:41;;;;;;;8.95;5.63;;;10.20;87.80;;;;;;10099519;28;20029;-61
2021/10/10 08:48:32;;;;;;;10.63;5.85;;;10.20;87.90;;;;;;10118790;28;20028;-68
2021/10/10 08:53:25;;;;;;;10.00;5.63;;;10.30;88.00;;;;;;10111197;28;20028;-65
2021/10/10 08:58:19;;;;;;;11.82;6.03;;;10.40;87.90;;;;;;10129967;28;20037;-65
2021/10/10 09:03:11;;;;;;;8.18;4.60;;;10.40;87.70;;;;;;10126443;28;20029;-63
2021/10/10 09:08:02;;;;;;;13.57;6.72;;;10.50;88.00;;;;;;10123346;28;20225;-62
2021/10/10 09:13:28;;;;;;;8.07;5.68;;;10.60;87.60;;;;;;10115920;28;20055;-64
2021/10/10 09:18:19;;;;;;;10.75;5.63;;;10.90;87.20;;;;;;10083845;28;20036;-69
2021/10/10 09:23:33;;;;;;;8.10;5.05;;;11.00;87.00;;;;;;10121611;28;20461;-65
2021/10/10 09:28:25;;;;;;;11.27;6.45;;;11.00;86.90;;;;;;10115179;28;20040;-60
2021/10/10 09:33:16;;;;;;;13.38;6.07;;;11.10;87.00;;;;;;10120108;28;20487;-63
2021/10/10 09:38:16;;;;;;;10.35;6.13;;;11.20;86.90;;;;;;10128983;28;20161;-61
2021/10/10 09:43:07;;;;;;;13.77;7.38;;;11.40;86.40;;;;;;10123178;28;20041;-65
2021/10/10 09:48:03;;;;;;;9.07;5.72;;;11.40;86.50;;;;;;10121858;28;20028;-63
2021/10/10 09:53:06;;;;;;;11.80;6.25;;;11.50;86.20;;;;;;10097048;28;20419;-61
2021/10/10 09:57:57;;;;;;;12.95;5.72;;;11.60;86.10;;;;;;10121908;28;20124;-60
2021/10/10 10:02:49;;;;;;;19.67;9.52;;;11.70;85.90;;;;;;10122321;28;20272;-61
2021/10/10 10:07:40;;;;;;;9.82;6.38;;;11.90;85.50;;;;;;10111871;28;20029;-62
2021/10/10 10:12:31;;;;;;;12.30;7.60;;;12.00;85.30;;;;;;10124377;28;20056;-62
2021/10/10 10:17:23;;;;;;;10.32;6.18;;;12.20;85.30;;;;;;10124335;28;20508;-62
2021/10/10 10:22:17;;;;;;;11.98;6.60;;;12.20;85.30;;;;;;10117069;28;20479;-69
2021/10/10 10:27:07;;;;;;;8.73;5.70;;;12.40;84.90;;;;;;10118733;28;20029;-64
2021/10/10 10:32:00;;;;;;;11.57;6.45;;;12.40;84.70;;;;;;10116086;28;20036;-64
2021/10/10 10:37:00;;;;;;;13.32;5.57;;;12.60;84.60;;;;;;10103278;28;20094;-63
2021/10/10 10:41:50;;;;;;;12.20;6.32;;;12.50;84.30;;;;;;10123808;28;20059;-62
2021/10/10 10:47:04;;;;;;;10.60;5.63;;;12.70;84.90;;;;;;10128418;28;20046;-60
2021/10/10 10:52:28;;;;;;;11.10;6.07;;;12.80;84.00;;;;;;10121941;28;20499;-59
2021/10/10 10:57:36;;;;;;;11.48;7.55;;;12.90;83.20;;;;;;10120375;28;20522;-60
2021/10/10 11:02:48;;;;;;;14.27;6.40;;;13.10;83.50;;;;;;10119756;28;20048;-66
2021/10/10 11:07:48;;;;;;;11.20;5.65;;;13.20;82.80;;;;;;10112260;28;20025;-65
2021/10/10 11:12:39;;;;;;;11.40;7.20;;;13.20;83.10;;;;;;10087167;28;20106;-64
2021/10/10 11:17:29;;;;;;;8.95;5.78;;;13.30;82.70;;;;;;10107251;28;20028;-61
2021/10/10 11:22:20;;;;;;;9.00;5.40;;;13.30;82.10;;;;;;10119967;28;20428;-61
2021/10/10 11:27:12;;;;;;;19.02;6.88;;;13.50;82.00;;;;;;10123926;28;20024;-59
2021/10/10 11:32:03;;;;;;;16.75;7.70;;;13.50;81.70;;;;;;10119994;28;20048;-60
2021/10/10 11:36:55;;;;;;;13.30;6.65;;;13.70;81.40;;;;;;10117604;28;20020;-63
2021/10/10 11:41:52;;;;;;;10.00;5.63;;;13.80;81.30;;;;;;10125466;28;20068;-60
2021/10/10 11:46:55;;;;;;;12.02;5.90;;;14.00;80.90;;;;;;10119557;28;20036;-59
2021/10/10 11:51:49;;;;;;;8.25;5.13;;;14.20;80.50;;;;;;10116629;28;20090;-59
2021/10/10 11:56:57;;;;;;;8.07;5.10;;;14.30;80.00;;;;;;10121753;28;20052;-61
2021/10/10 12:01:55;;;;;;;10.52;5.75;;;14.40;78.60;;;;;;10120872;28;20017;-62
2021/10/10 12:06:47;;;;;;;10.70;5.05;;;14.50;79.40;;;;;;10123289;28;20428;-60
2021/10/10 12:11:39;;;;;;;11.18;5.90;;;14.80;79.00;;;;;;10091534;28;20052;-61
2021/10/10 12:16:40;;;;;;;13.18;6.03;;;15.00;78.30;;;;;;10118868;28;20035;-60
2021/10/10 12:21:31;;;;;;;8.48;5.53;;;15.30;78.00;;;;;;10115137;28;20090;-60
2021/10/10 12:26:22;;;;;;;13.15;5.30;;;15.50;77.80;;;;;;10086911;28;20068;-63
2021/10/10 12:31:21;;;;;;;10.65;6.20;;;15.80;77.80;;;;;;10114207;28;20110;-64
2021/10/10 12:36:16;;;;;;;12.40;6.18;;;16.10;77.40;;;;;;10092252;28;20118;-60
2021/10/10 12:41:21;;;;;;;13.55;6.30;;;16.60;77.20;;;;;;10107633;28;20072;-62
2021/10/10 12:46:12;;;;;;;;;;;17.00;76.60;;;;;;10110462;28;20037;-65
2021/10/10 12:51:04;;;;;;;8.35;5.60;;;17.20;75.90;;;;;;10112920;28;20374;-61
2021/10/10 12:56:18;;;;;;;10.73;5.60;;;17.50;76.50;;;;;;10119522;28;20039;-60
2021/10/10 13:01:09;;;;;;;8.67;5.00;;;18.10;76.40;;;;;;10110424;28;20021;-63
2021/10/10 13:05:59;;;;;;;9.00;5.03;;;18.20;75.70;;;;;;10112895;28;20041;-63
2021/10/10 13:10:50;;;;;;;8.68;5.32;;;18.30;75.90;;;;;;10104621;28;20067;-59
2021/10/10 13:15:40;;;;;;;7.25;4.97;;;18.50;74.50;;;;;;10109025;28;20120;-67
2021/10/10 13:20:31;;;;;;;9.88;5.53;;;19.00;74.90;;;;;;10117838;28;20024;-66
2021/10/10 13:25:22;;;;;;;8.30;5.30;;;19.30;73.90;;;;;;10120029;28;20017;-67
2021/10/10 13:30:12;;;;;;;7.22;5.40;;;20.10;73.00;;;;;;10120916;28;20041;-59
2021/10/10 13:35:04;;;;;;;7.05;4.80;;;20.50;71.10;;;;;;10119474;28;20491;-63
2021/10/10 13:39:54;;;;;;;6.68;5.40;;;20.90;70.00;;;;;;10120903;28;20537;-62
2021/10/10 13:44:45;;;;;;;11.20;6.40;;;21.60;68.60;;;;;;10121650;28;20035;-61
2021/10/10 13:49:43;;;;;;;8.27;4.78;;;21.60;67.60;;;;;;10101956;28;20033;-63
2021/10/10 13:54:33;;;;;;;7.47;5.22;;;21.50;66.20;;;;;;10125786;28;20025;-62
2021/10/10 13:59:24;;;;;;;8.52;5.05;;;22.00;64.80;;;;;;10129451;28;20025;-62
2021/10/10 14:04:14;;;;;;;7.47;5.30;;;22.10;62.20;;;;;;10125782;28;20036;-68
2021/10/10 14:09:05;;;;;;;8.88;4.90;;;22.80;61.10;;;;;;10103382;28;20308;-63
2021/10/10 14:13:56;;;;;;;9.63;5.32;;;23.80;58.80;;;;;;10108482;28;20115;-66
2021/10/10 14:18:46;;;;;;;9.60;5.15;;;25.50;55.90;;;;;;10104051;28;20017;-67
2021/10/10 14:23:37;;;;;;;6.32;4.40;;;26.90;52.60;;;;;;10119307;28;20043;-66
2021/10/10 14:28:28;;;;;;;8.10;4.60;;;27.00;50.40;;;;;;10116086;28;20107;-66
2021/10/10 14:33:20;;;;;;;7.07;4.90;;;27.20;49.00;;;;;;10123097;28;20063;-65
2021/10/10 14:38:11;;;;;;;8.13;4.97;;;27.30;47.30;;;;;;10122225;28;20027;-62
2021/10/10 14:43:05;;;;;;;6.43;4.82;;;27.80;46.00;;;;;;10115030;28;20025;-69
2021/10/10 14:48:13;;;;;;;7.40;5.32;;;28.30;44.40;;;;;;10104725;28;20116;-59
2021/10/10 14:53:06;;;;;;;9.05;5.35;;;28.30;43.20;;;;;;10121487;28;20041;-67
2021/10/10 14:57:58;;;;;;;;;;;27.80;42.80;;;;;;10124031;28;20043;-68
2021/10/10 15:02:51;;;;;;;8.38;4.75;;;27.50;42.50;;;;;;10120856;28;19919;-62
2021/10/10 15:07:42;;;;;;;8.40;4.65;;;27.70;42.60;;;;;;10111462;28;20067;-62
2021/10/10 15:12:37;;;;;;;6.90;4.35;;;27.00;41.90;;;;;;10118603;28;20032;-65
2021/10/10 15:17:27;;;;;;;10.15;5.10;;;26.20;42.30;;;;;;10105271;28;20441;-64
2021/10/10 15:22:18;;;;;;;7.32;4.68;;;25.50;43.00;;;;;;10102574;28;20033;-67
2021/10/10 15:27:09;;;;;;;8.90;4.90;;;24.50;43.90;;;;;;10119964;28;20054;-67
2021/10/10 15:32:00;;;;;;;9.55;5.00;;;24.40;44.30;;;;;;10104109;28;20072;-65
2021/10/10 15:36:50;;;;;;;7.15;5.50;;;25.10;42.90;;;;;;10104539;28;20518;-61
2021/10/10 15:41:42;;;;;;;9.40;5.47;;;26.00;41.80;;;;;;10098337;28;20033;-64
2021/10/10 15:46:34;;;;;;;7.28;4.30;;;25.70;42.50;;;;;;10112178;28;20029;-61
2021/10/10 15:51:24;;;;;;;7.32;4.53;;;25.10;42.90;;;;;;10124917;28;20139;-65
2021/10/10 15:56:15;;;;;;;7.88;4.47;;;24.60;43.50;;;;;;10121887;28;20449;-64
2021/10/10 16:01:06;;;;;;;11.80;5.07;;;24.50;43.30;;;;;;10116955;28;20035;-66
2021/10/10 16:05:56;;;;;;;7.78;4.15;;;23.60;44.20;;;;;;10089030;28;20025;-64
2021/10/10 16:10:49;;;;;;;7.03;4.63;;;20.30;48.80;;;;;;10101328;28;20063;-60
2021/10/10 16:15:40;;;;;;;8.00;4.47;;;18.40;51.80;;;;;;10116147;28;20379;-64
2021/10/10 16:20:30;;;;;;;8.70;4.60;;;17.50;53.00;;;;;;10115351;28;20024;-61
2021/10/10 16:25:23;;;;;;;8.70;4.53;;;17.00;53.60;;;;;;10097189;28;20039;-61
2021/10/10 16:30:15;;;;;;;6.88;4.45;;;16.70;54.10;;;;;;10109602;28;20117;-69
2021/10/10 16:35:13;;;;;;;6.45;4.18;;;16.50;54.70;;;;;;10116708;28;20047;-67
2021/10/10 16:40:27;;;;;;;9.18;4.75;;;16.30;55.00;;;;;;10121102;28;20649;-70
2021/10/10 16:45:18;;;;;;;9.23;6.03;;;16.20;55.20;;;;;;10094446;28;20479;-70
2021/10/10 16:50:09;;;;;;;11.25;5.20;;;16.00;56.10;;;;;;10117726;28;20044;-68
2021/10/10 16:54:59;;;;;;;9.57;5.40;;;15.80;56.80;;;;;;10117360;28;20430;-70
2021/10/10 16:59:50;;;;;;;10.82;6.10;;;15.70;57.30;;;;;;10087117;28;20051;-70
2021/10/10 17:04:41;;;;;;;11.10;6.35;;;15.50;57.40;;;;;;10095570;28;20036;-70
2021/10/10 17:09:31;;;;;;;13.85;6.82;;;15.40;58.10;;;;;;10108254;28;20086;-63
2021/10/10 17:14:22;;;;;;;8.68;5.22;;;15.40;58.80;;;;;;10119591;28;20044;-69
2021/10/10 17:19:14;;;;;;;11.00;5.65;;;15.40;59.10;;;;;;10120123;28;20024;-59
2021/10/10 17:24:06;;;;;;;13.07;6.45;;;15.20;59.30;;;;;;10117035;28;20090;-63
2021/10/10 17:28:56;;;;;;;11.95;5.80;;;15.10;60.10;;;;;;10125892;28;20327;-61
2021/10/10 17:33:47;;;;;;;16.40;5.82;;;15.10;60.30;;;;;;10121386;28;20051;-61
2021/10/10 17:38:38;;;;;;;10.85;6.32;;;15.00;61.20;;;;;;10122052;28;20055;-63
2021/10/10 17:43:28;;;;;;;10.32;6.53;;;14.90;61.60;;;;;;10123040;28;20079;-62
2021/10/10 17:48:19;;;;;;;11.82;6.43;;;14.90;62.00;;;;;;10128162;28;20074;-68
2021/10/10 17:53:10;;;;;;;12.55;7.43;;;14.80;63.00;;;;;;10125962;28;20094;-63
2021/10/10 17:58:13;;;;;;;10.18;5.70;;;14.70;63.10;;;;;;10117828;28;20061;-63
2021/10/10 18:13:20;;;;;;;11.68;6.55;;;14.50;64.50;;;;;;10068286;28;20095;-62
2021/10/10 18:18:11;;;;;;;12.75;6.15;;;14.40;64.80;;;;;;10117765;28;20040;-64
2021/10/10 18:23:03;;;;;;;11.63;6.68;;;14.40;65.20;;;;;;10120556;28;20029;-61
2021/10/10 18:27:54;;;;;;;11.52;6.60;;;14.30;65.30;;;;;;10128396;28;20321;-64
2021/10/10 18:32:44;;;;;;;13.48;6.88;;;14.20;65.70;;;;;;10121522;28;20044;-71
2021/10/10 18:37:35;;;;;;;11.55;6.63;;;14.20;66.00;;;;;;10124392;28;20060;-70
2021/10/10 18:42:26;;;;;;;10.27;6.07;;;14.10;66.20;;;;;;10114605;28;20040;-70
2021/10/10 18:47:17;;;;;;;11.70;6.63;;;14.10;66.60;;;;;;10119155;28;20085;-72
2021/10/10 18:52:12;;;;;;;15.18;6.65;;;14.10;66.90;;;;;;10125994;28;20033;-74
2021/10/10 18:57:02;;;;;;;14.13;8.00;;;14.00;67.30;;;;;;10124527;28;20320;-70
2021/10/10 19:01:53;;;;;;;11.25;6.60;;;13.90;67.40;;;;;;10120962;28;20507;-73
2021/10/10 19:06:43;;;;;;;12.15;7.07;;;13.90;67.70;;;;;;10123386;28;20088;-70
2021/10/10 19:11:35;;;;;;;11.68;6.47;;;13.80;67.90;;;;;;10123172;28;20127;-73
2021/10/10 19:16:25;;;;;;;18.17;8.02;;;13.70;68.30;;;;;;10125781;28;20078;-78
2021/10/10 19:21:16;;;;;;;17.13;7.25;;;13.60;68.60;;;;;;10137200;28;20331;-71
2021/10/10 19:26:08;;;;;;;13.00;6.38;;;13.60;69.30;;;;;;10106212;28;20033;-70
2021/10/10 19:30:59;;;;;;;16.48;7.13;;;13.50;69.30;;;;;;10122028;28;20041;-70
2021/10/10 19:35:50;;;;;;;14.35;8.07;;;13.50;69.40;;;;;;10101929;28;20494;-66
2021/10/10 19:40:40;;;;;;;11.27;7.07;;;13.40;69.50;;;;;;10117715;28;20087;-70
2021/10/10 19:45:34;;;;;;;14.48;7.38;;;13.30;70.20;;;;;;10122356;28;20028;-70
2021/10/10 19:50:25;;;;;;;10.80;7.40;;;13.10;70.40;;;;;;10147769;28;20052;-68
2021/10/10 19:55:16;;;;;;;13.35;7.10;;;13.00;70.60;;;;;;10147368;28;20062;-70
2021/10/10 20:00:08;;;;;;;14.75;8.00;;;12.90;70.90;;;;;;10143968;28;20312;-69
2021/10/10 20:04:59;;;;;;;13.82;6.88;;;12.70;71.30;;;;;;10144564;28;20199;-68
2021/10/10 20:09:49;;;;;;;12.77;7.13;;;12.80;71.40;;;;;;10138257;28;20024;-68
2021/10/10 20:14:40;;;;;;;15.20;6.45;;;12.70;71.70;;;;;;10129708;28;20139;-68
2021/10/10 20:19:31;;;;;;;15.25;7.30;;;12.60;71.80;;;;;;10128371;28;20145;-68
2021/10/10 20:24:22;;;;;;;10.23;6.38;;;12.70;72.20;;;;;;10128066;28;20274;-68
2021/10/10 20:29:13;;;;;;;13.73;8.38;;;12.60;72.20;;;;;;10125063;28;20020;-67
2021/10/10 20:34:03;;;;;;;13.60;7.25;;;12.60;72.70;;;;;;10139986;28;20044;-67
2021/10/10 20:38:56;;;;;;;12.85;7.35;;;12.50;72.90;;;;;;10112032;28;20232;-68
2021/10/10 20:43:46;;;;;;;14.95;7.50;;;12.50;73.10;;;;;;10125951;28;20254;-67
2021/10/10 20:48:37;;;;;;;17.45;7.78;;;12.40;73.50;;;;;;10136267;28;20307;-65
2021/10/10 20:53:28;;;;;;;13.25;7.05;;;12.40;73.80;;;;;;10141912;28;20091;-65
2021/10/10 20:58:19;;;;;;;12.68;8.02;;;12.40;73.70;;;;;;10140480;28;20040;-68
2021/10/10 21:03:10;;;;;;;15.88;7.57;;;12.20;73.60;;;;;;10137010;28;20065;-68
2021/10/10 21:08:00;;;;;;;11.73;7.22;;;12.20;73.90;;;;;;10137038;28;20037;-66
2021/10/10 21:12:51;;;;;;;12.02;6.55;;;12.10;73.90;;;;;;10145706;28;20219;-66
2021/10/10 21:17:42;;;;;;;20.73;11.18;;;12.00;74.30;;;;;;10142721;28;20294;-67
2021/10/10 21:22:32;;;;;;;18.65;10.93;;;12.10;74.20;;;;;;10133661;28;20074;-69
2021/10/10 21:27:26;;;;;;;18.02;9.60;;;12.10;75.00;;;;;;10122192;28;20092;-68
2021/10/10 21:32:29;;;;;;;16.23;8.25;;;12.20;74.20;;;;;;10142689;28;20029;-66
2021/10/10 21:37:20;;;;;;;12.82;7.78;;;12.00;74.50;;;;;;10143014;28;20050;-66
2021/10/10 21:42:11;;;;;;;16.35;8.80;;;12.00;74.80;;;;;;10126910;28;20028;-67
2021/10/10 21:47:02;;;;;;;12.68;6.97;;;11.80;75.00;;;;;;10140412;28;20066;-67
2021/10/10 21:51:54;;;;;;;12.60;7.85;;;11.80;75.40;;;;;;10133074;28;20143;-64
2021/10/10 21:56:45;;;;;;;14.65;7.97;;;11.70;75.60;;;;;;10142565;28;20027;-66
2021/10/10 22:01:38;;;;;;;14.25;7.85;;;11.80;75.80;;;;;;10139199;28;20028;-66
2021/10/10 22:06:28;;;;;;;15.23;7.90;;;11.80;75.40;;;;;;10152141;28;20330;-66
2021/10/10 22:11:21;;;;;;;16.45;7.78;;;11.60;75.90;;;;;;10128850;28;20036;-64
2021/10/10 22:16:12;;;;;;;13.73;7.32;;;11.70;75.90;;;;;;10142753;28;20255;-65
2021/10/10 22:21:07;;;;;;;13.13;8.13;;;11.50;76.20;;;;;;10128239;28;20036;-66
2021/10/10 22:31:18;;;;;;;16.75;7.75;;;11.30;76.60;;;;;;10107464;28;20052;-67
2021/10/10 22:36:09;;;;;;;12.38;7.43;;;11.20;77.10;;;;;;10111578;28;20124;-66
2021/10/10 22:41:00;;;;;;;13.68;7.53;;;11.10;77.30;;;;;;10121809;28;20108;-66
2021/10/10 22:45:50;;;;;;;13.52;7.97;;;11.20;77.20;;;;;;10119195;28;20324;-65
2021/10/10 22:50:41;;;;;;;11.57;7.88;;;11.10;77.20;;;;;;10115233;28;20056;-65
2021/10/10 22:55:32;;;;;;;15.93;9.27;;;11.20;77.40;;;;;;10123864;28;20025;-65
2021/10/10 23:00:23;;;;;;;13.35;7.55;;;11.10;77.60;;;;;;10122411;28;20521;-65
2021/10/10 23:05:14;;;;;;;11.80;6.47;;;11.00;77.70;;;;;;10108268;28;20029;-66
2021/10/10 23:10:06;;;;;;;13.30;7.03;;;11.00;78.30;;;;;;10122747;28;20511;-65
2021/10/10 23:14:57;;;;;;;13.35;7.72;;;10.90;78.10;;;;;;10103767;28;20523;-64
2021/10/10 23:19:47;;;;;;;11.68;6.72;;;10.70;78.60;;;;;;10126042;28;20021;-66
2021/10/10 23:24:38;;;;;;;13.77;7.18;;;10.60;78.80;;;;;;10117791;28;20593;-67
2021/10/10 23:29:29;;;;;;;13.80;6.55;;;10.50;79.10;;;;;;10121251;28;20094;-64
2021/10/10 23:34:19;;;;;;;12.45;6.90;;;10.60;79.10;;;;;;10117820;28;20135;-65
2021/10/10 23:39:10;;;;;;;10.35;5.95;;;10.60;79.10;;;;;;10118054;28;20025;-64
2021/10/10 23:44:00;;;;;;;12.50;6.68;;;10.50;79.30;;;;;;10121296;28;20399;-65
2021/10/10 23:48:51;;;;;;;10.20;6.45;;;10.50;79.30;;;;;;10117649;28;20021;-63
2021/10/10 23:53:42;;;;;;;13.85;6.63;;;10.50;79.30;;;;;;10121677;28;20088;-63
2021/10/10 23:58:34;;;;;;;15.55;7.15;;;10.50;79.20;;;;;;10110937;28;20037;-64
